Airfield :







YOU CAN JOIN US ON...

 
LOGIN :

Register | Disclaimer

   EN    FR    IT 

 









Legend :    VFR   Marginal VFR   IFR   Intensive IFR   Very Intensive IFR
Visi :
Ceiling :
>= 8 km
>= 3000ft
5 to 8 km
1000 to 3000 ft
1500m to 5 km
500 to 1000 ft
800 to 1500m
200 to 500 ft
< 800m
< 200 ft
Symbols :   Thunderstorms  Fog  Heavy snow  Heavy precipitations  Wind > 20 kt






- Airport Elevation : 328 ft


KGFL - Floyd Bennett Memorial

CURRENT METAR :
  • 170753Z AUTO 23011G20KT 10SM BKN035 OVC044 02/M04 A2929 RMK AO2 SLP926 T00171044

EXPIRED METARs :
  • 170653Z AUTO 22014G19KT 10SM FEW030 BKN037 OVC044 02/M03 A2927 RMK AO2 SLP918 T00171033
  • 170553Z AUTO 23010KT 10SM OVC042 02/M03 A2925 RMK AO2 SLP911 60000 T00221028 10022 20006 55003

TAF KGFL
Valid from the 17 at 06:00 until the 18 at 06:00 UTC


170537Z 1706/1806 23008G18KT P6SM VCSH BKN040
FM171230 25014G22KT P6SM VCSH SCT025 OVC035
FM171800 26016G23KT P6SM OVC040
FM172100 24012KT P6SM BKN030 OVC040
FM180300 24007KT P6SM VCSH BKN025 OVC035
KZBW FIR / North America



MET'MAP, your aeronautical weather chart ! - Copyright ORBIFLY December 2007 - Disclaimer

ORBIFLY MET'MAP TEAM :

Programming & Development : Alexandra Zaïnal
Concept & original design : Baudouin d'Aumeries
Assistance for programming : Marc-Olivier Méhu
Technical & hardware support : Manuel Goepfert

Contact : metmap@orbifly.com




SOURCES & CREDITS :

   NOAA